Time;durP1;ratioP1;P1;durP2;ratioP2;P2;SDS_P1;SDS_P2;PMS_P1;PMS_P2;Temp;Humidity;BMP_temperature;BMP_pressure;BME280_temperature;BME280_humidity;BME280_pressure;Samples;Min_cycle;Max_cycle;Signal;HPM_P1;HPM_P2
2023/06/05 00:02:16;;;;;;;;;;;;;;;18.45;40.57;101016.78;4957946;28;6963;-76
2023/06/05 00:04:43;;;;;;;;;;;;;;;18.46;40.69;101021.13;4947913;28;7160;-76
2023/06/05 00:07:09;;;;;;;;;;;;;;;18.47;40.55;101016.81;4990442;28;6788;-76
2023/06/05 00:09:35;;;;;;;;;;;;;;;18.49;41.09;101022.06;4980204;28;7154;-76
2023/06/05 00:12:00;;;;;;;;;;;;;;;18.48;40.74;101017.69;4960301;28;7111;-76
2023/06/05 00:14:26;;;;;;;;;;;;;;;18.46;40.94;101015.94;4991887;28;7092;-76
2023/06/05 00:16:52;;;;;;;;;;;;;;;18.44;41.05;101012.41;4964882;28;7042;-76
2023/06/05 00:19:18;;;;;;;;;;;;;;;18.42;41.71;101008.91;4950674;28;9031;-76
2023/06/05 00:21:43;;;;;;;;;;;;;;;18.40;41.64;101017.50;4979525;28;6804;-77
2023/06/05 00:24:09;;;;;;;;;;;;;;;18.37;41.87;101007.94;4969507;28;6757;-76
2023/06/05 00:26:35;;;;;;;;;;;;;;;18.36;41.82;101013.97;4996557;28;6967;-76
2023/06/05 00:29:00;;;;;;;;;;;;;;;18.31;42.45;101011.25;4992887;28;8651;-76
2023/06/05 00:31:27;;;;;;;;;;;;;;;18.29;42.31;101006.84;4951416;28;6985;-76
2023/06/05 00:33:52;;;;;;;;;;;;;;;18.26;42.50;101007.63;4989221;28;7076;-76
2023/06/05 00:36:22;;;;;;;;;;;;;;;18.23;42.78;101006.69;4949566;28;8623;-77
2023/06/05 00:38:50;;;;;;;;;;;;;;;18.21;42.49;101009.25;4961370;28;7015;-76
2023/06/05 00:41:16;;;;;;;;;;;;;;;18.18;42.92;101010.03;4967819;28;8775;-77
2023/06/05 00:43:41;;;;;;;;;;;;;;;18.15;43.05;101014.28;4955757;28;6962;-76
2023/06/05 00:46:08;;;;;;;;;;;;;;;18.14;42.99;101013.38;4990486;28;6974;-76
2023/06/05 00:48:35;;;;;;;;;;;;;;;18.09;43.28;101007.19;4992399;28;7517;-76
2023/06/05 00:51:01;;;;;;;;;;;;;;;18.07;43.67;101011.47;4959830;28;6780;-76
2023/06/05 00:53:32;;;;;;;;;;;;;;;18.05;43.39;101013.13;4989244;28;6784;-76
2023/06/05 00:55:58;;;;;;;;;;;;;;;18.02;43.80;101008.72;4961789;28;6784;-76
2023/06/05 00:58:27;;;;;;;;;;;;;;;17.98;43.98;101011.19;4991882;28;6824;-76
2023/06/05 01:00:53;;;;;;;;;;;;;;;17.95;43.92;101006.78;4961324;28;6927;-76
2023/06/05 01:03:22;;;;;;;;;;;;;;;17.90;43.85;101004.06;4966291;28;7245;-76
2023/06/05 01:05:48;;;;;;;;;;;;;;;17.85;44.22;101008.25;4958611;28;7022;-76
2023/06/05 01:08:16;;;;;;;;;;;;;;;17.81;44.18;101002.94;4961982;28;7512;-76
2023/06/05 01:10:44;;;;;;;;;;;;;;;17.76;44.37;101003.69;4993575;28;6804;-75
2023/06/05 01:13:26;;;;;;;;;;;;;;;17.72;44.66;101009.63;4992655;28;6864;-76
2023/06/05 01:15:54;;;;;;;;;;;;;;;17.67;44.72;101002.53;4992448;28;7039;-76
2023/06/05 01:18:23;;;;;;;;;;;;;;;17.65;44.86;101006.81;4992913;28;7177;-75
2023/06/05 01:20:48;;;;;;;;;;;;;;;17.60;45.07;101002.38;4992586;28;6796;-75
2023/06/05 01:23:14;;;;;;;;;;;;;;;17.58;45.55;101000.56;4989959;28;6960;-76
2023/06/05 01:25:42;;;;;;;;;;;;;;;17.56;45.64;100997.06;4990040;28;6772;-75
2023/06/05 01:28:31;;;;;;;;;;;;;;;17.54;45.47;101002.19;4989113;28;7350;-76
2023/06/05 01:31:13;;;;;;;;;;;;;;;17.48;45.90;101002.91;4992483;28;6855;-75
2023/06/05 01:34:07;;;;;;;;;;;;;;;17.43;46.08;100994.13;4993685;28;7325;-76
2023/06/05 01:36:34;;;;;;;;;;;;;;;17.38;45.71;100997.38;4961075;28;7003;-75
2023/06/05 01:39:01;;;;;;;;;;;;;;;17.32;46.10;101004.16;4976693;28;7001;-75
2023/06/05 01:41:28;;;;;;;;;;;;;;;17.28;45.97;100999.72;4993155;28;7018;-76
2023/06/05 01:43:56;;;;;;;;;;;;;;;17.25;46.41;100997.03;4991546;28;6995;-76
2023/06/05 01:46:23;;;;;;;;;;;;;;;17.20;46.29;100990.84;4961014;28;6939;-75
2023/06/05 01:48:51;;;;;;;;;;;;;;;17.17;47.06;100996.81;4964635;28;6796;-76
2023/06/05 01:51:16;;;;;;;;;;;;;;;17.13;46.45;100986.31;4979027;28;7002;-75
2023/06/05 01:53:42;;;;;;;;;;;;;;;17.09;47.23;100993.09;4981341;28;7249;-75
2023/06/05 01:56:08;;;;;;;;;;;;;;;17.05;47.27;100988.69;4962128;28;6780;-76
2023/06/05 01:58:35;;;;;;;;;;;;;;;17.02;47.40;100992.03;4963416;28;6972;-75
2023/06/05 02:01:03;;;;;;;;;;;;;;;16.99;47.43;100988.44;4958951;28;6869;-75
2023/06/05 02:03:28;;;;;;;;;;;;;;;16.95;47.42;100979.69;4970593;28;6843;-75
2023/06/05 02:05:54;;;;;;;;;;;;;;;16.91;47.75;100980.44;4959939;28;7276;-76
2023/06/05 02:08:22;;;;;;;;;;;;;;;16.87;48.10;100984.66;4947811;28;7199;-75
2023/06/05 02:10:52;;;;;;;;;;;;;;;16.82;47.74;100980.16;4986280;28;6792;-75
2023/06/05 02:13:24;;;;;;;;;;;;;;;16.77;47.47;100988.63;4991263;28;7127;-76
2023/06/05 02:15:55;;;;;;;;;;;;;;;16.71;47.76;100983.28;4960770;28;6888;-75
2023/06/05 02:18:24;;;;;;;;;;;;;;;16.67;47.99;100976.22;4961304;28;6804;-76
2023/06/05 02:20:55;;;;;;;;;;;;;;;16.65;48.29;100977.91;4987464;28;7310;-76
2023/06/05 02:23:21;;;;;;;;;;;;;;;16.62;48.51;100977.81;4976481;28;7059;-75
2023/06/05 02:25:47;;;;;;;;;;;;;;;16.59;48.81;100977.69;4962720;28;6815;-75
2023/06/05 02:28:13;;;;;;;;;;;;;;;16.57;48.78;100976.78;4991588;28;6787;-78
2023/06/05 02:30:38;;;;;;;;;;;;;;;16.52;49.07;100976.63;4989442;28;6812;-80
2023/06/05 02:33:04;;;;;;;;;;;;;;;16.48;48.83;100969.59;4968348;28;7223;-77
2023/06/05 02:35:30;;;;;;;;;;;;;;;16.45;49.15;100974.66;4939733;28;7824;-80
2023/06/05 02:37:56;;;;;;;;;;;;;;;16.41;49.23;100976.25;4947378;28;6923;-80
2023/06/05 02:40:22;;;;;;;;;;;;;;;16.39;49.16;100977.91;4988264;28;7417;-78
2023/06/05 02:42:47;;;;;;;;;;;;;;;16.36;49.67;100970.94;4961667;28;6777;-81
2023/06/05 02:45:13;;;;;;;;;;;;;;;16.34;49.30;100975.19;4957269;28;6971;-80
2023/06/05 02:47:39;;;;;;;;;;;;;;;16.34;50.10;100969.13;4965713;28;6965;-81
2023/06/05 02:50:07;;;;;;;;;;;;;;;16.31;49.77;100964.75;4989744;28;7666;-81
2023/06/05 02:52:35;;;;;;;;;;;;;;;16.31;49.55;100969.91;4956569;28;7117;-79
2023/06/05 02:55:02;;;;;;;;;;;;;;;16.31;49.69;100971.59;4940335;28;6978;-77
2023/06/05 02:57:27;;;;;;;;;;;;;;;16.27;49.85;100960.28;4966554;28;6796;-76
2023/06/05 02:59:55;;;;;;;;;;;;;;;16.26;50.14;100968.88;4977505;28;6972;-76
2023/06/05 03:02:21;;;;;;;;;;;;;;;16.25;50.06;100967.09;4955069;28;7328;-73
2023/06/05 03:04:52;;;;;;;;;;;;;;;16.21;50.36;100968.72;4959473;28;6787;-74
2023/06/05 03:07:19;;;;;;;;;;;;;;;16.18;50.51;100973.78;4972504;28;7002;-72
2023/06/05 03:09:45;;;;;;;;;;;;;;;16.15;50.18;100965.03;4977220;28;6976;-72
2023/06/05 03:12:10;;;;;;;;;;;;;;;16.14;50.24;100968.47;4943620;28;8797;-73
2023/06/05 03:14:36;;;;;;;;;;;;;;;16.08;50.65;100963.97;4995109;28;6767;-73
2023/06/05 03:17:03;;;;;;;;;;;;;;;16.05;50.64;100958.69;4991895;28;7272;-75
2023/06/05 03:19:29;;;;;;;;;;;;;;;16.02;50.69;100962.03;4961962;28;6804;-73
2023/06/05 03:21:55;;;;;;;;;;;;;;;16.00;50.93;100966.28;4948788;28;7181;-73
2023/06/05 03:24:24;;;;;;;;;;;;;;;15.98;50.83;100964.47;4952930;28;7963;-73
2023/06/05 03:26:50;;;;;;;;;;;;;;;15.96;50.55;100969.56;4958137;28;6815;-75
2023/06/05 03:29:16;;;;;;;;;;;;;;;15.93;51.29;100965.19;4978153;28;6780;-73
2023/06/05 03:31:42;;;;;;;;;;;;;;;15.90;51.50;100965.06;4964699;28;6788;-73
2023/06/05 03:34:08;;;;;;;;;;;;;;;15.90;51.69;100972.81;4957413;28;7276;-80
2023/06/05 03:36:34;;;;;;;;;;;;;;;15.88;51.58;100964.09;4953893;28;6792;-78
2023/06/05 03:39:00;;;;;;;;;;;;;;;15.87;51.53;100961.47;4960483;28;7047;-76
2023/06/05 03:41:26;;;;;;;;;;;;;;;15.87;51.75;100975.28;4992082;28;6800;-78
2023/06/05 03:43:53;;;;;;;;;;;;;;;15.87;51.38;100964.03;4988075;28;6991;-77
2023/06/05 03:46:19;;;;;;;;;;;;;;;15.87;51.77;100969.22;4961465;28;6808;-79
2023/06/05 03:48:58;;;;;;;;;;;;;;;15.87;51.82;100959.78;4956358;28;6788;-80
2023/06/05 03:51:30;;;;;;;;;;;;;;;15.86;51.68;100965.75;4963831;28;6823;-80
2023/06/05 03:54:00;;;;;;;;;;;;;;;15.87;51.61;100972.69;4989480;28;7266;-78
2023/06/05 03:56:34;;;;;;;;;;;;;;;15.87;51.64;100977.84;4990165;28;6812;-77
2023/06/05 03:59:08;;;;;;;;;;;;;;;15.89;52.13;100981.38;4957345;28;6843;-79
2023/06/05 04:01:38;;;;;;;;;;;;;;;15.90;51.79;100978.00;4960706;28;9119;-81
2023/06/05 04:04:07;;;;;;;;;;;;;;;15.93;51.66;100978.13;4956906;28;7145;-75
2023/06/05 04:06:33;;;;;;;;;;;;;;;15.98;51.96;100977.41;4989735;28;7208;-79
2023/06/05 04:08:59;;;;;;;;;;;;;;;16.00;52.02;100976.63;4977208;28;6809;-78
2023/06/05 04:11:28;;;;;;;;;;;;;;;16.05;52.19;100974.19;4966164;28;7207;-79
2023/06/05 04:13:54;;;;;;;;;;;;;;;16.08;52.12;100971.72;4963285;28;7276;-77
2023/06/05 04:16:19;;;;;;;;;;;;;;;16.14;51.73;100969.34;4961425;28;7177;-79
2023/06/05 04:18:45;;;;;;;;;;;;;;;16.29;52.57;100979.34;4989381;28;6958;-80
2023/06/05 04:21:11;;;;;;;;;;;;;;;16.49;52.57;100974.81;4991543;28;6784;-77
2023/06/05 04:23:37;;;;;;;;;;;;;;;16.70;52.57;100970.28;4990360;28;6768;-77
2023/06/05 04:26:04;;;;;;;;;;;;;;;16.91;52.27;100968.38;4979315;28;7134;-79
2023/06/05 04:28:31;;;;;;;;;;;;;;;17.13;51.82;100966.47;4951897;28;6848;-78
2023/06/05 04:30:57;;;;;;;;;;;;;;;17.37;52.39;100969.72;4953825;28;7128;-75
2023/06/05 04:33:22;;;;;;;;;;;;;;;17.58;51.45;100975.56;4968710;28;6772;-74
2023/06/05 04:35:49;;;;;;;;;;;;;;;17.77;51.06;100965.69;4974526;28;7112;-79
2023/06/05 04:38:15;;;;;;;;;;;;;;;17.96;50.84;100973.94;4965650;28;7178;-78
2023/06/05 04:40:40;;;;;;;;;;;;;;;18.13;50.55;100964.06;4962425;28;7162;-79
2023/06/05 04:43:07;;;;;;;;;;;;;;;18.28;49.92;100971.38;4998383;28;7136;-81
2023/06/05 04:45:33;;;;;;;;;;;;;;;18.43;50.02;100971.72;4957081;28;6983;-77
2023/06/05 04:47:59;;;;;;;;;;;;;;;18.58;49.31;100972.97;4963760;28;6943;-80
2023/06/05 04:50:28;;;;;;;;;;;;;;;18.71;49.18;100975.00;4977226;28;7233;-79
2023/06/05 04:52:54;;;;;;;;;;;;;;;18.85;48.90;100969.25;4994818;28;6926;-78
2023/06/05 04:55:21;;;;;;;;;;;;;;;18.98;48.62;100970.44;4966200;28;7045;-80
2023/06/05 04:57:48;;;;;;;;;;;;;;;19.10;47.89;100975.03;4967493;28;6997;-80
2023/06/05 05:00:16;;;;;;;;;;;;;;;19.24;48.67;100971.03;4964886;28;6996;-80
2023/06/05 05:02:43;;;;;;;;;;;;;;;19.42;48.15;100972.25;4950971;28;7016;-79
2023/06/05 05:05:13;;;;;;;;;;;;;;;19.60;47.96;100973.44;4962931;28;8203;-80
2023/06/05 05:07:42;;;;;;;;;;;;;;;19.76;47.34;100970.31;4962787;28;6812;-80
2023/06/05 05:10:09;;;;;;;;;;;;;;;19.89;47.38;100976.63;4952751;28;6837;-80
2023/06/05 05:12:36;;;;;;;;;;;;;;;20.05;47.05;100980.41;4952703;28;7050;-76
2023/06/05 05:15:04;;;;;;;;;;;;;;;20.20;46.59;100972.00;4964718;28;7001;-81
2023/06/05 05:17:31;;;;;;;;;;;;;;;20.34;46.45;100974.84;4982183;28;6998;-80
2023/06/05 05:19:57;;;;;;;;;;;;;;;20.46;46.07;100973.28;4995006;28;7872;-78
2023/06/05 05:22:24;;;;;;;;;;;;;;;20.58;45.71;100976.09;4964555;28;6872;-81
2023/06/05 05:24:50;;;;;;;;;;;;;;;20.67;45.63;100973.66;4981800;28;7867;-80
2023/06/05 05:27:16;;;;;;;;;;;;;;;20.76;45.14;100972.00;4982073;28;7244;-79
2023/06/05 05:29:42;;;;;;;;;;;;;;;20.87;45.22;100970.50;4964839;28;7065;-80
2023/06/05 05:32:07;;;;;;;;;;;;;;;21.02;44.96;100968.94;4963434;28;6779;-79
2023/06/05 05:34:33;;;;;;;;;;;;;;;21.15;44.49;100973.50;4963750;28;6759;-80
2023/06/05 05:36:59;;;;;;;;;;;;;;;21.32;44.70;100980.63;4963006;28;6808;-80
2023/06/05 05:39:25;;;;;;;;;;;;;;;21.41;43.82;100972.94;4959943;28;6809;-78
2023/06/05 05:41:50;;;;;;;;;;;;;;;21.50;43.88;100975.66;4959083;28;6982;-80
2023/06/05 05:44:16;;;;;;;;;;;;;;;21.56;43.62;100976.59;4994256;28;6794;-79
2023/06/05 05:46:46;;;;;;;;;;;;;;;21.60;43.51;100967.94;4990967;28;7260;-81
2023/06/05 05:49:11;;;;;;;;;;;;;;;21.65;43.18;100977.56;4965224;28;6959;-80
2023/06/05 05:51:37;;;;;;;;;;;;;;;21.69;43.05;100975.03;4991325;28;6944;-78
2023/06/05 05:54:02;;;;;;;;;;;;;;;21.65;42.91;100976.69;4967780;28;6788;-79
2023/06/05 05:56:28;;;;;;;;;;;;;;;21.60;42.74;100983.59;4991294;28;7612;-77
2023/06/05 05:58:54;;;;;;;;;;;;;;;21.46;42.23;100972.97;4993524;28;7082;-80
2023/06/05 06:01:21;;;;;;;;;;;;;;;21.26;41.99;100978.81;4958332;28;6776;-79
2023/06/05 06:03:48;;;;;;;;;;;;;;;21.08;42.28;100982.94;4988773;28;6808;-78
2023/06/05 06:06:13;;;;;;;;;;;;;;;20.93;42.49;100986.19;4981700;28;6973;-78
2023/06/05 06:08:39;;;;;;;;;;;;;;;20.78;42.37;100996.38;4941794;28;6955;-80
2023/06/05 06:11:06;;;;;;;;;;;;;;;20.64;43.03;100986.59;4982717;28;7248;-80
2023/06/05 06:13:35;;;;;;;;;;;;;;;20.52;42.72;100984.69;4991563;28;7683;-78
2023/06/05 06:16:04;;;;;;;;;;;;;;;20.41;42.96;100988.84;4958549;28;6807;-81
2023/06/05 06:18:30;;;;;;;;;;;;;;;20.32;43.61;100992.16;4981640;28;7216;-79
2023/06/05 06:20:55;;;;;;;;;;;;;;;20.24;43.40;100994.66;4960724;28;6982;-78
2023/06/05 06:23:21;;;;;;;;;;;;;;;20.21;43.63;100993.72;4963946;28;6780;-80
2023/06/05 06:25:47;;;;;;;;;;;;;;;20.17;43.73;100995.38;4975672;28;7057;-79
2023/06/05 06:28:12;;;;;;;;;;;;;;;20.12;43.89;100992.69;4964111;28;7000;-80
2023/06/05 06:30:38;;;;;;;;;;;;;;;20.07;43.87;100989.13;4961363;28;7119;-77
2023/06/05 06:33:04;;;;;;;;;;;;;;;20.04;44.20;100996.00;4993790;28;6787;-81
2023/06/05 06:35:31;;;;;;;;;;;;;;;20.00;44.53;100989.88;4976392;28;6788;-79
2023/06/05 06:37:58;;;;;;;;;;;;;;;20.04;45.17;100996.88;4942114;28;7006;-80
2023/06/05 06:40:24;;;;;;;;;;;;;;;20.10;44.82;100990.91;4981581;28;8548;-79
2023/06/05 06:42:53;;;;;;;;;;;;;;;20.16;44.65;100998.84;4962650;28;7116;-77
2023/06/05 06:45:21;;;;;;;;;;;;;;;20.22;44.68;101004.13;4960214;28;7840;-79
2023/06/05 06:47:46;;;;;;;;;;;;;;;20.28;44.64;101000.78;4959693;28;6800;-80
2023/06/05 06:50:14;;;;;;;;;;;;;;;20.34;44.70;101003.47;4960708;28;7681;-80
2023/06/05 06:52:40;;;;;;;;;;;;;;;20.42;45.06;101008.81;4972142;28;6984;-79
2023/06/05 06:55:06;;;;;;;;;;;;;;;20.57;45.25;101008.22;4967653;28;6788;-80
2023/06/05 06:57:32;;;;;;;;;;;;;;;20.77;45.02;101016.31;4962510;28;7091;-80
2023/06/05 06:59:58;;;;;;;;;;;;;;;21.02;44.92;101013.25;4948838;28;6974;-80
2023/06/05 07:02:25;;;;;;;;;;;;;;;21.33;44.86;101008.44;4956472;28;6933;-80
2023/06/05 07:04:53;;;;;;;;;;;;;;;21.68;45.02;101009.78;4963874;28;7058;-79
2023/06/05 07:07:21;;;;;;;;;;;;;;;22.05;44.57;101012.78;4959328;28;7786;-81
2023/06/05 07:09:51;;;;;;;;;;;;;;;22.42;44.24;101017.50;4980036;28;7074;-80
2023/06/05 07:12:19;;;;;;;;;;;;;;;22.75;43.38;101018.66;4967764;28;8809;-75
2023/06/05 07:14:45;;;;;;;;;;;;;;;23.12;43.46;101010.16;4965042;28;7183;-74
2023/06/05 07:17:11;;;;;;;;;;;;;;;23.52;42.79;101013.03;4959832;28;6954;-74
2023/06/05 07:19:37;;;;;;;;;;;;;;;23.85;42.04;101008.78;4989965;28;7151;-75
2023/06/05 07:22:04;;;;;;;;;;;;;;;24.16;41.33;101014.97;4987330;28;7245;-73
2023/06/05 07:24:32;;;;;;;;;;;;;;;24.46;40.86;101011.50;4959129;28;8276;-74
2023/06/05 07:27:00;;;;;;;;;;;;;;;24.76;40.40;101009.72;4987747;28;7450;-74
2023/06/05 07:29:27;;;;;;;;;;;;;;;25.01;40.07;101000.97;4955484;28;7371;-77
2023/06/05 07:31:55;;;;;;;;;;;;;;;25.20;38.51;101002.66;4936791;28;7435;-76
2023/06/05 07:34:22;;;;;;;;;;;;;;;25.34;38.13;101002.63;4957241;28;8550;-76
2023/06/05 07:36:51;;;;;;;;;;;;;;;25.51;37.79;100999.09;4956455;28;6796;-74
2023/06/05 07:39:19;;;;;;;;;;;;;;;25.66;38.18;100998.16;4950421;28;7241;-75
2023/06/05 07:41:45;;;;;;;;;;;;;;;25.84;37.27;101002.41;4979854;28;7192;-75
2023/06/05 07:44:14;;;;;;;;;;;;;;;26.00;37.16;100999.69;4987183;28;6993;-73
2023/06/05 07:46:41;;;;;;;;;;;;;;;26.17;37.00;101000.44;4986056;28;6863;-75
2023/06/05 07:49:07;;;;;;;;;;;;;;;26.38;36.94;100993.31;4964217;28;6970;-74
2023/06/05 07:51:36;;;;;;;;;;;;;;;26.66;36.55;100989.53;4945493;28;6990;-75
2023/06/05 07:54:08;;;;;;;;;;;;;;;26.87;35.83;100986.69;4981108;28;7287;-74
2023/06/05 07:56:34;;;;;;;;;;;;;;;27.01;35.75;100983.94;4939516;28;7304;-75
2023/06/05 07:59:02;;;;;;;;;;;;;;;27.09;35.22;100981.25;4976350;28;7023;-74
2023/06/05 08:01:36;;;;;;;;;;;;;;;27.18;35.04;100990.78;4955882;28;6824;-75
2023/06/05 08:04:06;;;;;;;;;;;;;;;27.23;34.56;100994.19;4954307;28;7367;-73
2023/06/05 08:06:32;;;;;;;;;;;;;;;27.25;34.44;100996.81;4962269;28;6801;-74
2023/06/05 08:09:01;;;;;;;;;;;;;;;27.37;34.43;100995.81;4989520;28;6787;-74
2023/06/05 08:11:28;;;;;;;;;;;;;;;27.51;34.08;100985.97;4962152;28;6788;-73
2023/06/05 08:13:55;;;;;;;;;;;;;;;27.54;33.91;100987.69;4973871;28;7062;-75
2023/06/05 08:16:21;;;;;;;;;;;;;;;27.63;33.27;100977.06;4961008;28;6872;-74
2023/06/05 08:18:46;;;;;;;;;;;;;;;27.75;33.06;100977.78;4990268;28;6776;-74
2023/06/05 08:21:13;;;;;;;;;;;;;;;27.93;32.77;100979.28;4954104;28;7147;-75
2023/06/05 08:23:39;;;;;;;;;;;;;;;28.09;32.49;100978.13;4986897;28;6990;-73
2023/06/05 08:26:10;;;;;;;;;;;;;;;28.21;32.52;100974.44;4976553;28;7135;-74
2023/06/05 08:28:41;;;;;;;;;;;;;;;28.23;31.64;100971.81;4957522;28;7178;-75
2023/06/05 08:31:08;;;;;;;;;;;;;;;28.19;31.43;100972.72;4987219;28;7456;-74
2023/06/05 08:33:34;;;;;;;;;;;;;;;28.25;31.66;100964.75;4956259;28;6792;-74
2023/06/05 08:36:01;;;;;;;;;;;;;;;28.38;31.22;100966.25;4964549;28;6784;-72
2023/06/05 08:38:28;;;;;;;;;;;;;;;28.52;30.88;100967.78;4963222;28;8238;-75
2023/06/05 08:41:07;;;;;;;;;;;;;;;28.72;31.09;100964.75;4968932;28;6804;-75
2023/06/05 08:43:37;;;;;;;;;;;;;;;29.02;30.52;100954.56;4962919;28;6808;-73
2023/06/05 08:46:06;;;;;;;;;;;;;;;29.31;29.92;100953.09;4942418;28;6990;-72
2023/06/05 08:48:46;;;;;;;;;;;;;;;29.45;30.32;100958.06;4988293;28;6799;-75
2023/06/05 08:51:16;;;;;;;;;;;;;;;29.65;29.45;100962.06;4994714;28;7041;-74
2023/06/05 08:54:12;;;;;;;;;;;;;;;29.82;29.55;100958.13;4956722;28;7123;-73
2023/06/05 08:56:39;;;;;;;;;;;;;;;30.03;29.09;100960.25;4989514;28;7019;-73
2023/06/05 08:59:10;;;;;;;;;;;;;;;30.23;28.81;100953.66;4964294;28;7176;-74
2023/06/05 09:01:37;;;;;;;;;;;;;;;30.33;28.59;100949.84;4961722;28;6850;-74
2023/06/05 09:04:03;;;;;;;;;;;;;;;30.38;28.30;100955.03;4959786;28;6792;-73
2023/06/05 09:06:28;;;;;;;;;;;;;;;30.43;28.35;100949.63;4951115;28;7337;-73
2023/06/05 09:08:55;;;;;;;;;;;;;;;30.45;28.06;100950.44;4963999;28;7206;-74
2023/06/05 09:11:30;;;;;;;;;;;;;;;30.64;28.24;100940.22;4961909;28;8027;-73
2023/06/05 09:13:58;;;;;;;;;;;;;;;30.89;27.60;100940.41;4978762;28;7186;-75
2023/06/05 09:16:43;;;;;;;;;;;;;;;31.07;27.46;100930.22;4943374;28;7055;-74
2023/06/05 09:19:11;;;;;;;;;;;;;;;31.21;27.07;100934.25;4976209;28;6796;-74
2023/06/05 09:21:37;;;;;;;;;;;;;;;31.24;26.93;100936.81;4992921;28;7395;-72
2023/06/05 09:24:13;;;;;;;;;;;;;;;31.29;27.07;100943.69;4994446;28;7403;-74
2023/06/05 09:26:48;;;;;;;;;;;;;;;31.40;26.86;100938.09;4959688;28;7048;-72
2023/06/05 09:29:22;;;;;;;;;;;;;;;31.56;26.23;100933.16;4980793;28;6800;-71
2023/06/05 09:31:51;;;;;;;;;;;;;;;31.70;26.52;100926.56;4980185;28;7012;-73
2023/06/05 09:34:27;;;;;;;;;;;;;;;31.75;26.05;100934.34;4991693;28;7734;-72
2023/06/05 09:36:54;;;;;;;;;;;;;;;31.77;26.36;100929.88;4949611;28;7058;-71
2023/06/05 09:39:21;;;;;;;;;;;;;;;31.91;25.77;100932.97;4973198;28;6938;-70
2023/06/05 09:41:49;;;;;;;;;;;;;;;32.03;25.90;100926.41;4978605;28;7053;-73
2023/06/05 09:44:15;;;;;;;;;;;;;;;32.14;25.69;100928.66;4963562;28;6800;-72
2023/06/05 09:46:52;;;;;;;;;;;;;;;32.23;25.26;100927.50;4996084;28;6990;-72
2023/06/05 09:49:25;;;;;;;;;;;;;;;32.32;25.14;100927.19;4963605;28;6843;-78
2023/06/05 09:51:51;;;;;;;;;;;;;;;32.49;25.10;100929.25;4963094;28;6868;-76
2023/06/05 09:54:18;;;;;;;;;;;;;;;32.71;24.97;100922.31;4961514;28;6833;-77
2023/06/05 09:56:51;;;;;;;;;;;;;;;32.82;24.73;100925.44;4965744;28;6824;-77
2023/06/05 09:59:21;;;;;;;;;;;;;;;32.87;24.26;100927.91;4990431;28;6808;-79
2023/06/05 10:01:50;;;;;;;;;;;;;;;32.75;24.26;100923.91;4977169;28;6808;-76
2023/06/05 10:04:25;;;;;;;;;;;;;;;32.72;24.44;100922.22;4992495;28;6792;-77
2023/06/05 10:06:54;;;;;;;;;;;;;;;32.83;23.99;100913.88;4989527;28;6804;-78
2023/06/05 10:09:21;;;;;;;;;;;;;;;32.93;23.89;100922.38;4959837;28;6808;-78
2023/06/05 10:11:50;;;;;;;;;;;;;;;33.04;23.44;100919.31;4976197;28;7233;-77
2023/06/05 10:14:17;;;;;;;;;;;;;;;33.09;23.50;100922.69;4964937;28;7027;-78
2023/06/05 10:16:48;;;;;;;;;;;;;;;33.16;23.26;100918.00;4991284;28;6918;-75
2023/06/05 10:19:15;;;;;;;;;;;;;;;33.31;23.49;100912.06;4975180;28;7261;-76
2023/06/05 10:21:41;;;;;;;;;;;;;;;33.45;23.27;100916.81;4990220;28;6892;-77
2023/06/05 10:24:14;;;;;;;;;;;;;;;33.39;23.08;100915.28;4987208;28;6792;-77
2023/06/05 10:27:14;;;;;;;;;;;;;;;33.37;23.03;100919.81;4960141;28;6868;-73
2023/06/05 10:30:21;;;;;;;;;;;;;;;33.39;22.87;100915.28;4957984;28;7047;-77
2023/06/05 10:33:24;;;;;;;;;;;;;;;33.55;22.59;100911.16;4963167;28;11451;-78
2023/06/05 10:36:27;;;;;;;;;;;;;;;33.71;22.84;100911.44;4987204;28;7518;-77
2023/06/05 10:38:53;;;;;;;;;;;;;;;33.81;22.37;100907.47;4961862;28;8457;-73
2023/06/05 10:41:19;;;;;;;;;;;;;;;33.87;22.20;100911.66;4959255;28;6808;-76
2023/06/05 10:43:52;;;;;;;;;;;;;;;33.85;22.03;100902.84;4963531;28;7014;-77
2023/06/05 10:46:27;;;;;;;;;;;;;;;33.86;22.39;100905.44;4977035;28;7066;-77
2023/06/05 10:49:08;;;;;;;;;;;;;;;34.01;22.39;100895.16;4966626;28;9794;-75
2023/06/05 10:51:45;;;;;;;;;;;;;;;34.11;22.11;100896.47;4977408;28;7059;-78
2023/06/05 10:54:34;;;;;;;;;;;;;;;34.11;21.59;100900.91;4988330;28;6958;-78
2023/06/05 10:57:06;;;;;;;;;;;;;;;33.96;21.61;100891.78;4963555;28;6804;-77
2023/06/05 10:59:37;;;;;;;;;;;;;;;33.97;21.54;100894.38;4944932;28;7393;-78
2023/06/05 11:04:46;;;;;;;;;;;;;;;33.90;21.09;100892.91;4973272;28;6871;-75
2023/06/05 11:07:23;;;;;;;;;;;;;;;33.90;21.17;100892.91;4963667;28;6804;-78
2023/06/05 11:10:07;;;;;;;;;;;;;;;34.00;21.42;100891.59;4943970;28;6986;-77
2023/06/05 11:12:39;;;;;;;;;;;;;;;34.12;21.03;100892.00;4975206;28;7174;-76
2023/06/05 11:15:36;;;;;;;;;;;;;;;34.08;20.66;100880.63;4964201;28;6796;-77
2023/06/05 11:18:35;;;;;;;;;;;;;;;34.15;21.27;100884.75;4982718;28;6832;-75
2023/06/05 11:21:01;;;;;;;;;;;;;;;34.19;20.97;100883.72;4969479;28;7177;-76
2023/06/05 11:23:28;;;;;;;;;;;;;;;34.32;20.41;100883.16;4946306;28;6961;-77
2023/06/05 11:25:58;;;;;;;;;;;;;;;34.40;20.57;100874.81;4982879;28;6982;-77
2023/06/05 11:28:42;;;;;;;;;;;;;;;34.48;20.02;100870.91;4962303;28;6788;-76
2023/06/05 11:31:08;;;;;;;;;;;;;;;34.57;20.31;100868.75;4959850;28;7156;-77
2023/06/05 11:33:34;;;;;;;;;;;;;;;34.71;19.84;100862.81;4942550;28;7235;-77
2023/06/05 11:36:07;;;;;;;;;;;;;;;34.79;19.79;100865.13;4968475;28;7056;-78
2023/06/05 11:38:34;;;;;;;;;;;;;;;34.82;20.07;100864.97;4973504;28;7134;-78
2023/06/05 11:41:04;;;;;;;;;;;;;;;34.81;19.21;100864.09;4955151;28;7371;-74
2023/06/05 11:43:30;;;;;;;;;;;;;;;34.82;19.81;100860.53;4960324;28;6820;-77
2023/06/05 11:45:57;;;;;;;;;;;;;;;34.87;19.45;100866.47;4977046;28;6960;-77
2023/06/05 11:48:27;;;;;;;;;;;;;;;34.90;19.47;100862.81;4963899;28;7039;-74
2023/06/05 11:51:01;;;;;;;;;;;;;;;34.91;19.03;100864.53;4956193;28;7178;-73
2023/06/05 11:53:29;;;;;;;;;;;;;;;34.87;19.06;100862.97;4968422;28;7438;-75
2023/06/05 11:58:30;;;;;;;;;;;;;;;34.86;18.78;100858.56;4988932;28;7247;-73
2023/06/05 12:01:21;;;;;;;;;;;;;;;34.83;19.69;100861.38;4946512;28;7422;-73
2023/06/05 12:03:49;;;;;;;;;;;;;;;34.76;19.54;100856.31;4943095;28;7304;-72
2023/06/05 12:06:17;;;;;;;;;;;;;;;34.70;19.41;100851.31;4976578;28;6983;-73
2023/06/05 12:08:44;;;;;;;;;;;;;;;34.73;19.35;100848.50;4957731;28;7511;-73
2023/06/05 12:11:22;;;;;;;;;;;;;;;34.69;18.96;100844.28;4988047;28;7207;-73
2023/06/05 12:13:56;;;;;;;;;;;;;;;34.72;19.29;100845.91;4965049;28;7278;-74
2023/06/05 12:16:37;;;;;;;;;;;;;;;34.84;19.38;100856.00;4961007;28;7089;-73
2023/06/05 12:19:18;;;;;;;;;;;;;;;34.88;19.29;100846.06;4971047;28;7082;-73
2023/06/05 12:21:50;;;;;;;;;;;;;;;34.93;18.72;100837.84;4994285;28;6820;-72
2023/06/05 12:24:23;;;;;;;;;;;;;;;34.98;18.73;100843.81;4984244;28;7008;-74
2023/06/05 12:26:58;;;;;;;;;;;;;;;35.07;19.00;100842.56;4993339;28;6942;-72
2023/06/05 12:29:29;;;;;;;;;;;;;;;35.04;18.49;100831.09;4966286;28;7011;-72
2023/06/05 12:31:57;;;;;;;;;;;;;;;34.98;19.17;100834.03;4960859;28;6803;-73
2023/06/05 12:34:50;;;;;;;;;;;;;;;34.97;18.84;100831.44;4993461;28;6792;-71
2023/06/05 12:37:37;;;;;;;;;;;;;;;35.03;18.90;100820.50;4998115;28;7019;-72
2023/06/05 12:40:10;;;;;;;;;;;;;;;35.22;19.18;100824.97;4979984;28;6807;-72
2023/06/05 12:42:39;;;;;;;;;;;;;;;35.28;18.99;100824.63;4980266;28;7010;-73
2023/06/05 12:45:08;;;;;;;;;;;;;;;35.45;18.76;100823.81;4966918;28;6879;-74
2023/06/05 12:47:35;;;;;;;;;;;;;;;35.77;18.72;100826.66;4989922;28;7592;-73
2023/06/05 12:50:03;;;;;;;;;;;;;;;35.97;18.53;100820.25;4968534;28;7171;-76
2023/06/05 12:52:30;;;;;;;;;;;;;;;35.98;18.44;100826.47;4959076;28;9000;-74
2023/06/05 12:54:56;;;;;;;;;;;;;;;35.82;18.61;100819.25;4957695;28;7483;-73
2023/06/05 12:57:24;;;;;;;;;;;;;;;35.64;18.48;100820.22;4988652;28;7335;-73
2023/06/05 12:59:53;;;;;;;;;;;;;;;35.54;18.84;100815.34;4992059;28;7225;-74
2023/06/05 13:02:21;;;;;;;;;;;;;;;35.44;18.70;100814.94;4944146;28;7042;-74
2023/06/05 13:04:47;;;;;;;;;;;;;;;35.34;18.66;100821.66;4975378;28;7034;-75